Time;durP1;ratioP1;P1;durP2;ratioP2;P2;SDS_P1;SDS_P2;PMS_P1;PMS_P2;Temp;Humidity;BMP_temperature;BMP_pressure;BME280_temperature;BME280_humidity;BME280_pressure;Samples;Min_cycle;Max_cycle;Signal;HPM_P1;HPM_P2
2021/01/12 00:02:17;;;;;;;15.20;11.38;;;3.70;99.90;;;;;;5093713;28;20240;-49
2021/01/12 00:04:44;;;;;;;15.93;12.77;;;4.00;99.90;;;;;;5093624;28;20689;-49
2021/01/12 00:07:11;;;;;;;15.90;11.85;;;3.70;99.90;;;;;;5093777;28;20571;-49
2021/01/12 00:09:37;;;;;;;14.60;10.45;;;3.90;99.90;;;;;;5093536;28;20199;-48
2021/01/12 00:12:05;;;;;;;18.00;12.77;;;3.50;99.90;;;;;;5093402;28;20199;-48
2021/01/12 00:14:33;;;;;;;18.63;13.00;;;3.80;99.90;;;;;;5093217;28;20584;-48
2021/01/12 00:17:01;;;;;;;12.93;10.30;;;3.80;99.90;;;;;;5093582;28;20192;-48
2021/01/12 00:19:27;;;;;;;15.75;12.82;;;3.70;99.90;;;;;;5093302;28;20187;-48
2021/01/12 00:21:55;;;;;;;16.27;12.02;;;3.80;99.90;;;;;;5093357;28;20229;-48
2021/01/12 00:24:22;;;;;;;14.05;10.48;;;3.70;99.90;;;;;;5092832;28;20210;-48
2021/01/12 00:26:49;;;;;;;16.35;10.45;;;3.70;99.90;;;;;;5092204;28;20199;-47
2021/01/12 00:29:16;;;;;;;13.35;11.07;;;3.80;99.90;;;;;;5094045;28;20190;-48
2021/01/12 00:31:44;;;;;;;13.75;10.65;;;3.80;99.90;;;;;;5093755;28;20247;-48
2021/01/12 00:34:12;;;;;;;15.77;11.93;;;3.00;99.90;;;;;;5093717;28;20218;-48
2021/01/12 00:36:42;;;;;;;14.98;10.10;;;3.90;99.90;;;;;;5093709;28;20219;-47
2021/01/12 00:39:09;;;;;;;15.85;10.88;;;4.00;99.90;;;;;;5093446;28;20641;-48
2021/01/12 00:41:36;;;;;;;14.98;10.50;;;3.80;99.90;;;;;;5093600;28;20280;-48
2021/01/12 00:44:04;;;;;;;17.40;11.43;;;4.10;99.90;;;;;;5093256;28;20237;-49
2021/01/12 00:46:30;;;;;;;17.02;11.15;;;3.80;99.90;;;;;;5091392;28;20195;-48
2021/01/12 00:48:58;;;;;;;16.17;11.20;;;3.80;99.90;;;;;;5092698;28;20228;-49
2021/01/12 00:51:33;;;;;;;16.92;11.63;;;3.80;99.90;;;;;;5092906;28;20195;-49
2021/01/12 00:54:00;;;;;;;14.90;11.98;;;3.90;99.90;;;;;;5092007;28;20236;-48
2021/01/12 00:56:26;;;;;;;17.25;11.90;;;3.50;99.90;;;;;;5092663;28;20215;-49
2021/01/12 00:58:52;;;;;;;13.63;9.52;;;3.60;99.90;;;;;;5092442;28;20191;-48
2021/01/12 01:01:19;;;;;;;14.55;10.05;;;3.50;99.90;;;;;;5092475;28;20187;-48
2021/01/12 01:03:45;;;;;;;13.82;11.27;;;3.70;99.90;;;;;;5091926;28;20222;-48
2021/01/12 01:06:14;;;;;;;15.40;11.40;;;3.70;99.90;;;;;;5092215;28;20520;-48
2021/01/12 01:08:40;;;;;;;15.65;11.27;;;3.70;99.90;;;;;;5092399;28;20202;-48
2021/01/12 01:11:07;;;;;;;17.60;11.25;;;3.60;99.90;;;;;;5092372;28;20651;-48
2021/01/12 01:13:33;;;;;;;15.70;11.77;;;3.80;99.90;;;;;;5091870;28;20214;-48
2021/01/12 01:15:59;;;;;;;15.13;11.60;;;3.80;99.90;;;;;;5092235;28;20214;-48
2021/01/12 01:18:26;;;;;;;19.63;12.38;;;3.80;99.90;;;;;;5092709;28;20219;-48
2021/01/12 01:20:52;;;;;;;16.13;11.45;;;3.80;99.90;;;;;;5092378;28;20609;-48
2021/01/12 01:23:20;;;;;;;17.35;12.30;;;3.90;99.90;;;;;;5090623;28;20218;-49
2021/01/12 01:25:46;;;;;;;16.75;12.55;;;3.30;99.90;;;;;;5092701;28;20199;-48
2021/01/12 01:28:13;;;;;;;15.05;11.85;;;3.80;99.90;;;;;;5092755;28;20740;-48
2021/01/12 01:30:39;;;;;;;14.95;11.30;;;3.80;99.90;;;;;;5093117;28;20198;-48
2021/01/12 01:33:06;;;;;;;19.42;11.40;;;3.60;99.90;;;;;;5092129;28;20558;-48
2021/01/12 01:35:32;;;;;;;17.52;10.93;;;3.90;99.90;;;;;;5092166;28;20639;-48
2021/01/12 01:38:00;;;;;;;16.95;13.50;;;3.70;99.90;;;;;;5092725;28;20206;-48
2021/01/12 01:40:28;;;;;;;13.48;11.55;;;3.80;99.90;;;;;;5090746;28;20201;-48
2021/01/12 01:42:54;;;;;;;17.15;13.07;;;3.70;99.90;;;;;;5091553;28;20256;-48
2021/01/12 01:45:23;;;;;;;18.10;11.85;;;4.00;99.90;;;;;;5092300;28;20206;-48
2021/01/12 01:47:50;;;;;;;16.38;12.98;;;3.70;99.90;;;;;;5092428;28;20195;-48
2021/01/12 01:50:17;;;;;;;17.88;13.00;;;3.90;99.90;;;;;;5091821;28;20685;-48
2021/01/12 01:52:45;;;;;;;17.13;12.25;;;3.70;99.90;;;;;;5091422;28;20202;-48
2021/01/12 01:55:14;;;;;;;17.42;12.60;;;3.30;99.90;;;;;;5091565;28;20206;-48
2021/01/12 01:57:41;;;;;;;18.88;14.15;;;3.50;99.90;;;;;;5091465;28;20213;-48
2021/01/12 02:00:10;;;;;;;18.83;12.73;;;3.90;99.90;;;;;;5091587;28;20655;-48
2021/01/12 02:02:53;;;;;;;18.38;14.88;;;3.80;99.90;;;;;;5090965;28;20194;-48
2021/01/12 02:05:23;;;;;;;18.65;13.63;;;3.30;99.90;;;;;;5090612;28;20296;-48
2021/01/12 02:07:53;;;;;;;20.92;13.55;;;3.30;99.90;;;;;;5091403;28;20190;-48
2021/01/12 02:10:24;;;;;;;20.60;14.25;;;3.50;99.90;;;;;;5091522;28;20194;-48
2021/01/12 02:12:58;;;;;;;20.00;14.00;;;3.50;99.90;;;;;;5090846;28;20190;-49
2021/01/12 02:15:26;;;;;;;20.98;14.43;;;3.40;99.90;;;;;;5091260;28;20218;-48
2021/01/12 02:17:53;;;;;;;19.77;15.05;;;3.20;99.90;;;;;;5091332;28;20191;-48
2021/01/12 02:20:22;;;;;;;19.33;15.48;;;3.00;99.90;;;;;;5091276;28;20271;-48
2021/01/12 02:23:04;;;;;;;20.05;15.32;;;3.20;99.90;;;;;;5090824;28;20186;-47
2021/01/12 02:25:34;;;;;;;19.73;14.45;;;2.90;99.90;;;;;;5090999;28;20244;-47
2021/01/12 02:28:02;;;;;;;23.20;15.02;;;3.30;99.90;;;;;;5091252;28;20655;-49
2021/01/12 02:30:29;;;;;;;21.40;15.43;;;3.00;99.90;;;;;;5091087;28;20191;-48
2021/01/12 02:32:55;;;;;;;19.77;14.02;;;3.30;99.90;;;;;;5089594;28;20215;-48
2021/01/12 02:35:24;;;;;;;20.27;15.23;;;3.30;99.90;;;;;;5091280;28;20675;-49
2021/01/12 02:37:51;;;;;;;19.77;13.95;;;3.00;99.90;;;;;;5091220;28;20195;-48
2021/01/12 02:40:18;;;;;;;24.17;16.02;;;3.30;99.90;;;;;;5091106;28;20190;-48
2021/01/12 02:42:46;;;;;;;21.75;16.02;;;3.30;99.90;;;;;;5090947;28;20266;-48
2021/01/12 02:45:13;;;;;;;23.90;15.88;;;2.70;99.90;;;;;;5091010;28;20659;-48
2021/01/12 02:47:40;;;;;;;25.42;16.17;;;2.80;99.90;;;;;;5091000;28;20194;-49
2021/01/12 02:50:11;;;;;;;25.27;16.35;;;2.80;99.90;;;;;;5089768;28;20586;-48
2021/01/12 02:52:38;;;;;;;25.17;15.73;;;3.20;99.90;;;;;;5090546;28;20228;-47
2021/01/12 02:55:07;;;;;;;22.42;17.15;;;2.90;99.90;;;;;;5090643;28;20248;-47
2021/01/12 02:57:33;;;;;;;29.05;17.90;;;3.00;99.90;;;;;;5089488;28;20205;-47
2021/01/12 03:00:01;;;;;;;21.42;15.45;;;3.20;99.90;;;;;;5090792;28;20218;-48
2021/01/12 03:02:27;;;;;;;21.08;16.27;;;2.90;99.90;;;;;;5090839;28;20210;-49
2021/01/12 03:04:54;;;;;;;21.58;16.38;;;3.20;99.90;;;;;;5091014;28;20229;-47
2021/01/12 03:07:20;;;;;;;19.42;14.93;;;3.20;99.90;;;;;;5091418;28;20203;-48
2021/01/12 03:09:47;;;;;;;23.23;16.27;;;3.40;99.90;;;;;;5090812;28;20194;-49
2021/01/12 03:12:13;;;;;;;21.50;16.83;;;3.20;99.90;;;;;;5091222;28;20267;-48
2021/01/12 03:14:41;;;;;;;24.05;16.33;;;3.10;99.90;;;;;;5089839;28;20249;-48
2021/01/12 03:17:10;;;;;;;21.08;16.45;;;2.90;99.90;;;;;;5093341;28;20222;-48
2021/01/12 03:19:36;;;;;;;25.35;17.02;;;3.00;99.90;;;;;;5094531;28;20197;-49
2021/01/12 03:22:03;;;;;;;24.27;17.23;;;3.20;99.90;;;;;;5094830;28;20544;-48
2021/01/12 03:24:29;;;;;;;22.45;16.30;;;2.80;99.90;;;;;;5094377;28;20229;-49
2021/01/12 03:26:56;;;;;;;22.17;14.30;;;2.70;99.90;;;;;;5094767;28;20225;-48
2021/01/12 03:29:22;;;;;;;23.08;16.70;;;3.20;99.90;;;;;;5094860;28;20191;-48
2021/01/12 03:31:49;;;;;;;25.58;16.77;;;2.90;99.90;;;;;;5094449;28;20222;-49
2021/01/12 03:34:16;;;;;;;25.80;16.88;;;3.10;99.90;;;;;;5093724;28;20219;-49
2021/01/12 03:36:43;;;;;;;18.75;15.65;;;2.40;99.90;;;;;;5094002;28;20225;-48
2021/01/12 03:39:09;;;;;;;21.75;16.08;;;2.70;99.90;;;;;;5094047;28;20240;-49
2021/01/12 03:41:36;;;;;;;23.35;16.00;;;2.90;99.90;;;;;;5094056;28;20685;-48
2021/01/12 03:44:02;;;;;;;22.38;15.75;;;2.70;99.90;;;;;;5093635;28;20227;-49
2021/01/12 03:46:29;;;;;;;19.98;14.85;;;2.90;99.90;;;;;;5093977;28;20274;-48
2021/01/12 03:48:56;;;;;;;20.60;15.85;;;3.10;99.90;;;;;;5093724;28;20718;-48
2021/01/12 03:51:25;;;;;;;23.42;17.00;;;3.00;99.90;;;;;;5093720;28;20199;-49
2021/01/12 03:53:51;;;;;;;24.83;17.45;;;2.80;99.90;;;;;;5093334;28;20203;-49
2021/01/12 03:56:18;;;;;;;25.10;16.92;;;2.80;99.90;;;;;;5093671;28;20248;-49
2021/01/12 03:58:45;;;;;;;27.23;18.92;;;2.90;99.90;;;;;;5093844;28;20633;-49
2021/01/12 04:01:12;;;;;;;23.02;16.75;;;2.20;99.90;;;;;;5093581;28;20218;-48
2021/01/12 04:03:39;;;;;;;20.15;16.13;;;3.20;99.90;;;;;;5093685;28;20222;-48
2021/01/12 04:06:12;;;;;;;21.67;16.77;;;3.10;99.90;;;;;;5093668;28;20199;-49
2021/01/12 04:08:40;;;;;;;22.40;17.40;;;2.90;99.90;;;;;;5093574;28;20195;-49
2021/01/12 04:11:07;;;;;;;24.38;17.80;;;2.90;99.90;;;;;;5093981;28;20199;-48
2021/01/12 04:13:33;;;;;;;24.80;16.77;;;3.00;99.90;;;;;;5093539;28;20655;-49
2021/01/12 04:16:02;;;;;;;21.73;17.67;;;3.00;99.90;;;;;;5093571;28;20206;-49
2021/01/12 04:18:29;;;;;;;24.10;17.10;;;3.00;99.90;;;;;;5093798;28;20264;-49
2021/01/12 04:20:56;;;;;;;23.70;17.83;;;3.30;99.90;;;;;;5093553;28;20191;-49
2021/01/12 04:23:23;;;;;;;22.25;16.85;;;2.80;99.90;;;;;;5093154;28;20214;-49
2021/01/12 04:25:50;;;;;;;21.02;16.80;;;3.00;99.90;;;;;;5093650;28;20198;-49
2021/01/12 04:28:17;;;;;;;22.23;17.45;;;3.20;99.90;;;;;;5092449;28;20194;-49
2021/01/12 04:30:44;;;;;;;23.30;17.17;;;3.10;99.90;;;;;;5093447;28;20513;-48
2021/01/12 04:33:11;;;;;;;21.25;16.35;;;3.00;99.90;;;;;;5093069;28;20222;-49
2021/01/12 04:35:37;;;;;;;22.35;18.30;;;3.00;99.90;;;;;;5093649;28;20574;-49
2021/01/12 04:38:04;;;;;;;24.65;17.83;;;2.90;99.90;;;;;;5093150;28;20186;-51
2021/01/12 04:40:31;;;;;;;23.48;17.63;;;3.00;99.90;;;;;;5093358;28;20229;-48
2021/01/12 04:42:59;;;;;;;25.50;17.90;;;3.60;99.90;;;;;;5092722;28;20207;-48
2021/01/12 04:45:26;;;;;;;25.85;19.77;;;3.10;99.90;;;;;;5091740;28;20206;-48
2021/01/12 04:47:53;;;;;;;23.83;17.45;;;3.30;99.90;;;;;;5093311;28;20566;-49
2021/01/12 04:50:20;;;;;;;22.13;17.42;;;3.00;99.90;;;;;;5092860;28;20213;-49
2021/01/12 04:52:47;;;;;;;24.55;17.40;;;3.30;99.90;;;;;;5092700;28;20674;-48
2021/01/12 04:55:15;;;;;;;23.45;17.60;;;2.60;99.90;;;;;;5092769;28;20574;-48
2021/01/12 04:57:41;;;;;;;25.30;17.88;;;3.20;99.90;;;;;;5092836;28;20238;-49
2021/01/12 05:00:12;;;;;;;23.05;17.35;;;3.20;99.90;;;;;;5093067;28;20575;-47
2021/01/12 05:02:39;;;;;;;24.70;18.05;;;3.00;99.90;;;;;;5092457;28;20267;-48
2021/01/12 05:05:07;;;;;;;24.67;17.55;;;3.00;99.90;;;;;;5091460;28;20232;-48
2021/01/12 05:07:37;;;;;;;21.80;16.75;;;3.20;99.90;;;;;;5093087;28;20190;-48
2021/01/12 05:10:10;;;;;;;20.67;15.55;;;2.80;99.90;;;;;;5092917;28;20576;-49
2021/01/12 05:12:40;;;;;;;22.10;16.88;;;3.10;99.90;;;;;;5091377;28;20636;-49
2021/01/12 05:15:11;;;;;;;25.98;18.65;;;3.40;99.90;;;;;;5091339;28;20329;-48
2021/01/12 05:17:38;;;;;;;24.08;18.70;;;3.10;99.90;;;;;;5092794;28;20659;-48
2021/01/12 05:20:07;;;;;;;23.70;19.35;;;3.30;99.90;;;;;;5092685;28;20572;-48
2021/01/12 05:22:40;;;;;;;24.33;17.65;;;3.30;99.90;;;;;;5090984;28;20206;-47
2021/01/12 05:25:20;;;;;;;24.33;18.33;;;3.40;99.90;;;;;;5092433;28;20294;-49
2021/01/12 05:27:52;;;;;;;18.83;15.50;;;3.10;99.90;;;;;;5092002;28;20247;-48
2021/01/12 05:30:25;;;;;;;20.58;15.18;;;3.30;99.90;;;;;;5092609;28;20212;-49
2021/01/12 05:32:52;;;;;;;28.08;18.40;;;3.30;99.90;;;;;;5092080;28;20217;-50
2021/01/12 05:35:19;;;;;;;26.05;18.95;;;3.40;99.90;;;;;;5092092;28;20220;-47
2021/01/12 05:37:46;;;;;;;22.25;18.50;;;3.50;99.90;;;;;;5092449;28;20273;-48
2021/01/12 05:40:14;;;;;;;25.65;17.73;;;3.40;99.90;;;;;;5092034;28;20655;-48
2021/01/12 05:42:41;;;;;;;23.52;19.80;;;3.40;99.90;;;;;;5092020;28;20194;-48
2021/01/12 05:45:08;;;;;;;26.42;20.00;;;3.10;99.90;;;;;;5090599;28;20258;-49
2021/01/12 05:47:36;;;;;;;23.83;17.13;;;3.40;99.90;;;;;;5091991;28;20205;-50
2021/01/12 05:50:03;;;;;;;21.98;17.15;;;3.40;99.90;;;;;;5091942;28;20198;-49
2021/01/12 05:52:44;;;;;;;21.48;18.38;;;3.20;99.90;;;;;;5091619;28;20276;-49
2021/01/12 05:55:15;;;;;;;19.70;16.15;;;3.30;99.90;;;;;;5091928;28;20273;-49
2021/01/12 05:57:52;;;;;;;24.88;18.90;;;3.20;99.90;;;;;;5091936;28;20282;-48
2021/01/12 06:00:21;;;;;;;27.45;19.23;;;3.10;99.90;;;;;;5092029;28;20190;-50
2021/01/12 06:02:53;;;;;;;23.02;17.90;;;3.30;99.90;;;;;;5091059;28;20202;-49
2021/01/12 06:05:20;;;;;;;23.88;17.15;;;3.50;99.90;;;;;;5091551;28;20191;-48
2021/01/12 06:07:47;;;;;;;24.10;18.52;;;2.80;99.90;;;;;;5091319;28;20522;-48
2021/01/12 06:10:17;;;;;;;25.13;18.35;;;3.30;99.90;;;;;;5091488;28;20222;-47
2021/01/12 06:12:48;;;;;;;23.20;18.02;;;3.80;99.90;;;;;;5091131;28;20532;-48
2021/01/12 06:15:16;;;;;;;22.85;17.90;;;2.80;99.90;;;;;;5090042;28;20210;-48
2021/01/12 06:17:44;;;;;;;23.42;17.95;;;3.30;99.90;;;;;;5091303;28;20249;-48
2021/01/12 06:20:17;;;;;;;19.80;16.33;;;3.20;99.90;;;;;;5091283;28;20206;-49
2021/01/12 06:22:51;;;;;;;18.67;15.90;;;3.20;99.90;;;;;;5090546;28;20195;-50
2021/01/12 06:25:19;;;;;;;21.35;17.05;;;3.40;99.90;;;;;;5090954;28;20259;-49
2021/01/12 06:27:47;;;;;;;18.75;16.75;;;3.30;99.90;;;;;;5091130;28;20194;-48
2021/01/12 06:30:17;;;;;;;22.23;17.65;;;3.10;99.90;;;;;;5091086;28;20195;-49
2021/01/12 06:32:46;;;;;;;23.23;17.58;;;3.40;99.90;;;;;;5090899;28;20195;-49
2021/01/12 06:35:14;;;;;;;23.15;17.75;;;3.20;99.90;;;;;;5091162;28;20233;-49
2021/01/12 06:37:43;;;;;;;27.85;18.38;;;3.40;99.90;;;;;;5091172;28;20773;-48
2021/01/12 06:40:11;;;;;;;25.10;17.98;;;3.50;99.90;;;;;;5090291;28;20213;-48
2021/01/12 06:42:39;;;;;;;21.05;16.45;;;3.50;99.90;;;;;;5090054;28;20709;-49
2021/01/12 06:45:08;;;;;;;18.65;15.25;;;3.20;99.90;;;;;;5090762;28;20210;-49
2021/01/12 06:47:35;;;;;;;23.02;16.75;;;3.50;99.90;;;;;;5090737;28;20217;-47
2021/01/12 06:50:05;;;;;;;22.40;17.02;;;3.30;99.90;;;;;;5090643;28;20222;-48
2021/01/12 06:52:41;;;;;;;22.73;18.02;;;3.40;99.90;;;;;;5094846;28;20236;-48
2021/01/12 06:55:09;;;;;;;20.02;16.67;;;3.30;99.90;;;;;;5094761;28;20703;-49
2021/01/12 06:57:36;;;;;;;24.23;18.75;;;3.30;99.90;;;;;;5094721;28;20218;-48
2021/01/12 07:00:07;;;;;;;23.27;16.67;;;3.40;99.90;;;;;;5095658;28;20662;-47
2021/01/12 07:02:34;;;;;;;19.50;15.98;;;3.50;99.90;;;;;;5094408;28;20315;-48
2021/01/12 07:05:08;;;;;;;21.38;17.13;;;3.60;99.90;;;;;;5094288;28;20284;-49
2021/01/12 07:07:37;;;;;;;21.65;16.30;;;3.60;99.90;;;;;;5094825;28;20194;-48
2021/01/12 07:10:06;;;;;;;19.40;15.88;;;3.60;99.90;;;;;;5094619;28;20593;-49
2021/01/12 07:12:33;;;;;;;21.50;16.55;;;3.60;99.90;;;;;;5094185;28;20202;-49
2021/01/12 07:15:05;;;;;;;20.80;16.75;;;3.70;99.90;;;;;;5094256;28;20234;-49
2021/01/12 07:17:33;;;;;;;19.90;17.45;;;3.60;99.90;;;;;;5094240;28;20767;-48
2021/01/12 07:20:06;;;;;;;18.60;15.48;;;3.60;99.90;;;;;;5094013;28;20197;-49
2021/01/12 07:22:33;;;;;;;17.58;15.50;;;3.80;99.90;;;;;;5094318;28;20269;-48
2021/01/12 07:25:01;;;;;;;26.15;19.98;;;3.80;99.90;;;;;;5094057;28;20211;-49
2021/01/12 07:27:28;;;;;;;20.30;16.95;;;3.50;99.90;;;;;;5094157;28;20187;-48
2021/01/12 07:29:55;;;;;;;24.35;17.73;;;3.00;99.90;;;;;;5094109;28;20220;-48
2021/01/12 07:32:29;;;;;;;19.15;15.50;;;3.50;99.90;;;;;;5093957;28;20195;-49
2021/01/12 07:34:59;;;;;;;19.92;14.90;;;3.50;99.90;;;;;;5093949;28;20239;-49
2021/01/12 07:37:35;;;;;;;19.73;16.60;;;4.20;99.90;;;;;;5093748;28;20214;-48
2021/01/12 07:40:03;;;;;;;21.00;17.35;;;3.70;99.90;;;;;;5093850;28;20311;-49
2021/01/12 07:42:30;;;;;;;16.38;14.65;;;3.60;99.90;;;;;;5093157;28;20194;-48
2021/01/12 07:45:03;;;;;;;17.00;15.10;;;3.80;99.90;;;;;;5093769;28;20211;-50
2021/01/12 07:47:30;;;;;;;24.38;16.52;;;3.60;99.90;;;;;;5093495;28;20689;-49
2021/01/12 07:49:57;;;;;;;15.80;13.82;;;3.20;99.90;;;;;;5093397;28;20209;-49
2021/01/12 07:52:24;;;;;;;17.25;14.68;;;3.90;99.90;;;;;;5092771;28;20651;-49
2021/01/12 07:54:51;;;;;;;21.45;17.05;;;3.70;99.90;;;;;;5092723;28;20309;-49
2021/01/12 07:57:19;;;;;;;18.60;16.38;;;3.30;99.90;;;;;;5093659;28;20607;-48
2021/01/12 07:59:46;;;;;;;23.02;17.13;;;3.80;99.90;;;;;;5093520;28;20186;-49
2021/01/12 08:02:14;;;;;;;19.58;16.42;;;3.70;99.90;;;;;;5091796;28;20213;-49
2021/01/12 08:04:40;;;;;;;17.35;14.00;;;3.80;99.90;;;;;;5092920;28;20218;-50
2021/01/12 08:07:08;;;;;;;16.25;13.57;;;3.60;99.90;;;;;;5093565;28;20190;-48
2021/01/12 08:09:38;;;;;;;18.38;14.55;;;4.30;99.90;;;;;;5093772;28;20531;-49
2021/01/12 08:12:06;;;;;;;16.52;13.73;;;3.70;99.90;;;;;;5093390;28;20203;-50
2021/01/12 08:14:34;;;;;;;16.27;13.77;;;3.90;99.90;;;;;;5092960;28;20282;-49
2021/01/12 08:17:05;;;;;;;14.45;11.68;;;3.80;99.90;;;;;;5092936;28;20215;-48
2021/01/12 08:19:32;;;;;;;17.75;13.20;;;3.80;99.90;;;;;;5091242;28;20225;-49
2021/01/12 08:21:58;;;;;;;16.27;13.48;;;3.70;99.90;;;;;;5093321;28;20194;-48
2021/01/12 08:24:26;;;;;;;13.05;11.60;;;4.10;99.90;;;;;;5092635;28;20643;-49
2021/01/12 08:26:53;;;;;;;14.82;12.70;;;4.30;99.90;;;;;;5092816;28;20419;-50
2021/01/12 08:29:22;;;;;;;14.77;11.95;;;3.90;99.90;;;;;;5093081;28;20187;-49
2021/01/12 08:31:54;;;;;;;15.93;13.20;;;4.00;99.90;;;;;;5092579;28;20198;-50
2021/01/12 08:34:24;;;;;;;12.55;11.32;;;3.70;99.90;;;;;;5092359;28;20214;-49
2021/01/12 08:36:51;;;;;;;12.27;11.07;;;3.60;99.90;;;;;;5092516;28;20218;-50
2021/01/12 08:39:19;;;;;;;15.20;10.30;;;3.60;99.90;;;;;;5093074;28;20290;-49
2021/01/12 08:41:47;;;;;;;14.23;10.88;;;4.00;99.90;;;;;;5093094;28;20202;-50
2021/01/12 08:44:17;;;;;;;13.55;10.02;;;3.50;99.90;;;;;;5092647;28;20211;-49
2021/01/12 08:46:44;;;;;;;13.02;10.93;;;3.90;99.90;;;;;;5093002;28;20512;-48
2021/01/12 08:49:11;;;;;;;14.15;10.90;;;4.10;99.90;;;;;;5092515;28;20193;-48
2021/01/12 08:51:38;;;;;;;11.98;9.90;;;3.80;99.90;;;;;;5092600;28;20191;-48
2021/01/12 08:54:07;;;;;;;12.95;9.63;;;4.00;99.90;;;;;;5092411;28;20648;-49
2021/01/12 08:56:33;;;;;;;12.85;10.10;;;4.00;99.90;;;;;;5092307;28;20218;-50
2021/01/12 08:59:04;;;;;;;11.45;9.60;;;3.40;99.90;;;;;;5092288;28;20694;-50
2021/01/12 09:01:32;;;;;;;9.43;8.40;;;4.00;99.90;;;;;;5092621;28;20264;-50
2021/01/12 09:04:07;;;;;;;10.65;9.55;;;3.80;99.90;;;;;;5091829;28;20279;-50
2021/01/12 09:06:36;;;;;;;10.50;8.30;;;3.80;99.90;;;;;;5092178;28;20198;-50
2021/01/12 09:09:11;;;;;;;11.35;8.98;;;3.90;99.90;;;;;;5092466;28;20217;-49
2021/01/12 09:11:39;;;;;;;11.73;9.27;;;4.10;99.90;;;;;;5092070;28;20209;-49
2021/01/12 09:14:07;;;;;;;10.73;8.43;;;3.90;99.90;;;;;;5091543;28;20258;-49
2021/01/12 09:16:34;;;;;;;11.73;8.00;;;4.00;99.90;;;;;;5092078;28;20218;-48
2021/01/12 09:19:13;;;;;;;10.95;9.20;;;3.60;99.90;;;;;;5092035;28;20623;-49
2021/01/12 09:21:41;;;;;;;10.32;9.05;;;3.30;99.90;;;;;;5092262;28;20198;-49
2021/01/12 09:24:17;;;;;;;10.38;8.63;;;3.80;99.90;;;;;;5091693;28;20214;-49
2021/01/12 09:26:44;;;;;;;9.70;8.30;;;4.00;99.90;;;;;;5092171;28;20608;-48
2021/01/12 09:29:11;;;;;;;9.65;8.50;;;4.00;99.90;;;;;;5091881;28;20720;-49
2021/01/12 09:31:48;;;;;;;10.73;9.32;;;3.80;99.90;;;;;;5091763;28;20278;-48
2021/01/12 09:34:24;;;;;;;13.55;8.20;;;4.00;99.90;;;;;;5091295;28;20230;-49
2021/01/12 09:36:52;;;;;;;11.05;7.72;;;4.10;99.90;;;;;;5091663;28;20202;-50
2021/01/12 09:39:20;;;;;;;14.30;10.40;;;4.00;99.90;;;;;;5091630;28;20191;-49
2021/01/12 09:41:52;;;;;;;11.23;8.52;;;3.80;99.90;;;;;;5091470;28;20679;-49
2021/01/12 09:44:19;;;;;;;16.45;8.95;;;3.80;99.90;;;;;;5089483;28;20287;-50
2021/01/12 09:46:46;;;;;;;17.40;9.75;;;4.00;99.90;;;;;;5091573;28;20191;-49
2021/01/12 09:49:13;;;;;;;14.15;9.10;;;4.10;99.90;;;;;;5091511;28;20191;-53
2021/01/12 09:51:39;;;;;;;12.52;7.50;;;4.30;99.90;;;;;;5091518;28;20524;-48
2021/01/12 09:54:08;;;;;;;10.60;9.32;;;4.40;99.90;;;;;;5090896;28;20393;-49
2021/01/12 09:56:36;;;;;;;10.90;8.23;;;4.40;99.90;;;;;;5091156;28;20215;-49
2021/01/12 09:59:02;;;;;;;9.70;7.80;;;4.20;99.90;;;;;;5091569;28;20203;-48
2021/01/12 10:01:29;;;;;;;12.07;9.43;;;4.20;99.90;;;;;;5091608;28;20194;-48
2021/01/12 10:03:55;;;;;;;9.52;7.63;;;4.20;99.90;;;;;;5114810;22;20596;-46
2021/01/12 10:06:22;;;;;;;13.48;8.43;;;4.10;99.90;;;;;;5092677;28;20633;-45
2021/01/12 10:08:49;;;;;;;12.90;8.90;;;4.30;99.90;;;;;;5092223;28;20194;-47
2021/01/12 10:11:17;;;;;;;12.07;8.95;;;4.50;99.90;;;;;;5092466;28;20202;-46
2021/01/12 10:13:45;;;;;;;8.80;7.43;;;3.80;99.90;;;;;;5092303;28;20210;-46
2021/01/12 10:16:19;;;;;;;9.20;6.82;;;4.30;99.90;;;;;;5092390;28;20666;-46
2021/01/12 10:18:46;;;;;;;9.00;7.30;;;4.40;99.90;;;;;;5092634;28;20236;-46
2021/01/12 10:21:15;;;;;;;7.93;7.05;;;4.30;99.90;;;;;;5092641;28;20195;-46
2021/01/12 10:23:42;;;;;;;15.75;8.15;;;4.30;99.90;;;;;;5091928;28;20211;-45
2021/01/12 10:26:13;;;;;;;11.90;8.05;;;4.40;99.90;;;;;;5093374;28;20244;-47
2021/01/12 10:28:41;;;;;;;9.77;7.05;;;4.10;99.90;;;;;;5092373;28;20214;-47
2021/01/12 10:31:10;;;;;;;13.77;7.75;;;4.20;99.90;;;;;;5092303;28;20199;-47
2021/01/12 10:33:37;;;;;;;13.60;7.57;;;3.80;99.90;;;;;;5092056;28;20273;-47
2021/01/12 10:36:04;;;;;;;8.75;7.50;;;3.80;99.90;;;;;;5093648;28;20333;-46
2021/01/12 10:38:31;;;;;;;11.13;7.35;;;4.30;99.90;;;;;;5093309;28;20194;-46
2021/01/12 10:40:57;;;;;;;8.27;6.85;;;4.40;99.90;;;;;;5092254;28;20662;-45
2021/01/12 10:43:25;;;;;;;21.80;14.45;;;4.50;99.90;;;;;;5091910;28;20256;-45
2021/01/12 10:45:52;;;;;;;12.88;8.80;;;4.30;99.90;;;;;;5099007;28;20198;-47
2021/01/12 10:48:22;;;;;;;9.35;8.23;;;4.20;99.90;;;;;;5091791;28;20241;-46
2021/01/12 10:50:49;;;;;;;9.85;7.70;;;4.30;99.90;;;;;;5093474;28;20191;-45
2021/01/12 10:53:16;;;;;;;11.73;7.32;;;4.70;99.90;;;;;;5090116;28;20203;-45
2021/01/12 10:55:43;;;;;;;8.35;6.13;;;4.40;99.90;;;;;;5091240;28;20198;-46
2021/01/12 10:58:10;;;;;;;7.38;6.35;;;4.50;99.90;;;;;;5091395;28;20327;-45
2021/01/12 11:00:37;;;;;;;8.75;6.72;;;4.60;99.90;;;;;;5091054;28;20186;-46
2021/01/12 11:03:06;;;;;;;7.50;6.57;;;4.60;99.90;;;;;;5090775;28;20458;-46
2021/01/12 11:05:33;;;;;;;8.18;6.30;;;4.80;99.90;;;;;;5091160;28;20214;-45
2021/01/12 11:08:03;;;;;;;7.32;6.57;;;4.60;99.90;;;;;;5091068;28;20677;-45
2021/01/12 11:10:30;;;;;;;9.88;6.90;;;4.60;99.90;;;;;;5090933;28;20190;-47
2021/01/12 11:12:59;;;;;;;10.32;7.00;;;4.60;99.90;;;;;;5090517;28;20190;-47
2021/01/12 11:15:26;;;;;;;8.40;7.22;;;4.70;99.90;;;;;;5090801;28;20218;-46
2021/01/12 11:17:53;;;;;;;8.02;7.10;;;4.80;99.90;;;;;;5090837;28;20253;-46
2021/01/12 11:20:20;;;;;;;8.70;6.68;;;4.30;99.90;;;;;;5090863;28;20194;-46
2021/01/12 11:22:47;;;;;;;10.55;6.55;;;4.70;99.90;;;;;;5091002;28;20198;-47
2021/01/12 11:25:14;;;;;;;7.75;6.32;;;4.50;99.90;;;;;;5091247;28;20721;-47
2021/01/12 11:27:40;;;;;;;11.60;7.22;;;4.60;99.90;;;;;;5091257;28;20195;-46
2021/01/12 11:30:08;;;;;;;7.38;6.43;;;4.70;99.90;;;;;;5090297;28;20294;-48
2021/01/12 11:32:39;;;;;;;10.80;5.85;;;4.90;99.90;;;;;;5091416;28;20238;-47
2021/01/12 11:35:10;;;;;;;10.85;6.20;;;4.90;99.90;;;;;;5091129;28;20215;-45
2021/01/12 11:37:37;;;;;;;11.10;6.75;;;4.70;99.90;;;;;;5092433;28;20563;-47
2021/01/12 11:40:07;;;;;;;8.10;6.80;;;5.00;99.90;;;;;;5095178;28;20643;-46
2021/01/12 11:42:33;;;;;;;7.85;7.05;;;4.80;99.90;;;;;;5095124;28;20222;-46
2021/01/12 11:45:00;;;;;;;11.52;7.30;;;4.80;99.90;;;;;;5094583;28;20211;-46
2021/01/12 11:47:27;;;;;;;9.95;8.10;;;4.80;99.90;;;;;;5095225;28;20590;-47
2021/01/12 11:49:53;;;;;;;10.70;9.05;;;5.00;99.90;;;;;;5095405;28;20195;-47
2021/01/12 11:52:20;;;;;;;11.13;7.53;;;4.90;99.90;;;;;;5095271;28;20305;-48
2021/01/12 11:54:47;;;;;;;8.55;7.65;;;5.00;99.90;;;;;;5096213;28;20695;-47
2021/01/12 11:57:14;;;;;;;8.10;7.20;;;4.90;99.90;;;;;;5095134;28;20534;-46
2021/01/12 11:59:40;;;;;;;13.60;8.45;;;5.10;99.90;;;;;;5094757;28;20629;-46
2021/01/12 12:02:07;;;;;;;9.02;7.43;;;5.10;99.90;;;;;;5094469;28;20214;-46
2021/01/12 12:04:34;;;;;;;9.90;7.97;;;4.70;99.90;;;;;;5093951;28;20226;-46
2021/01/12 12:07:02;;;;;;;11.07;8.18;;;5.00;99.90;;;;;;5093526;28;20615;-46
2021/01/12 12:09:30;;;;;;;14.07;8.25;;;5.00;99.90;;;;;;5094232;28;20190;-46
2021/01/12 12:11:58;;;;;;;7.82;7.10;;;4.90;99.90;;;;;;5094122;28;20191;-46
2021/01/12 12:14:25;;;;;;;9.90;7.82;;;5.10;99.90;;;;;;5094216;28;20634;-46
2021/01/12 12:16:54;;;;;;;10.38;7.47;;;4.80;99.90;;;;;;5093984;28;20673;-46
2021/01/12 12:19:21;;;;;;;8.73;7.85;;;5.10;99.90;;;;;;5093827;28;20289;-45
2021/01/12 12:21:50;;;;;;;11.48;8.10;;;4.80;99.90;;;;;;5094293;28;20201;-46
2021/01/12 12:24:17;;;;;;;8.73;7.13;;;4.90;99.90;;;;;;5093489;28;20207;-45
2021/01/12 12:26:45;;;;;;;10.77;7.78;;;4.50;99.90;;;;;;5093575;28;20194;-47
2021/01/12 12:29:13;;;;;;;7.68;6.88;;;5.10;99.90;;;;;;5093823;28;20193;-47
2021/01/12 12:31:40;;;;;;;13.57;8.00;;;5.00;99.90;;;;;;5094404;28;20195;-47
2021/01/12 12:34:07;;;;;;;9.60;7.00;;;5.40;99.90;;;;;;5093285;28;20320;-46
2021/01/12 12:36:34;;;;;;;9.85;6.97;;;5.10;99.90;;;;;;5093615;28;20666;-46
2021/01/12 12:39:01;;;;;;;9.82;8.40;;;5.40;99.90;;;;;;5095531;28;20213;-45
2021/01/12 12:41:31;;;;;;;8.65;7.40;;;5.30;99.90;;;;;;5093500;28;20260;-46
2021/01/12 12:43:57;;;;;;;12.40;7.45;;;5.20;99.90;;;;;;5093243;28;20256;-46
2021/01/12 12:46:26;;;;;;;9.68;7.70;;;4.60;99.90;;;;;;5093599;28;20191;-46